Bethel Heights, Arkansas
Current Conditions -  °F | °C
As of 2:48 PM on Tuesday 27 Jan 2015 (Local Time) from KASG Reporting Station
Clear Clear  
Wind Chill: 64°   Ceiling: Unl
Heat Index: 64°   Visibility: 10mi
Dew Point: 23°   Wind: 0mph
Humidity: 21%   Direction: NA
Pressure: 30.13"   Gusts: NA
Location:  36.1771°N, 94.0897°W
Report Text: KASG 272048Z 00000KT 10SM SKC 18/M05 A3013
Loading
Personal Weather Stations






























Interactive Weather Map New forecast layout! Learn more

10-Day Weather Forecast

Advertisements
Track Severe Weather on mobile